sensor_id;sensor_type;location;lat;lon;timestamp;temperature;humidity
12438;DHT22;6283;51.330;12.374;2022-12-18T00:01:30;-3.90;1.00
12438;DHT22;6283;51.330;12.374;2022-12-18T00:03:57;-4.20;1.00
12438;DHT22;6283;51.330;12.374;2022-12-18T00:06:24;-4.10;1.00
12438;DHT22;6283;51.330;12.374;2022-12-18T00:08:51;-3.90;1.00
12438;DHT22;6283;51.330;12.374;2022-12-18T00:11:20;-4.20;1.00
12438;DHT22;6283;51.330;12.374;2022-12-18T00:13:46;-3.90;1.00
12438;DHT22;6283;51.330;12.374;2022-12-18T00:16:14;-4.30;1.00
12438;DHT22;6283;51.330;12.374;2022-12-18T00:18:41;-4.10;1.00
12438;DHT22;6283;51.330;12.374;2022-12-18T00:21:09;-4.40;1.00
12438;DHT22;6283;51.330;12.374;2022-12-18T00:23:36;-4.40;1.00
12438;DHT22;6283;51.330;12.374;2022-12-18T00:26:04;-4.30;1.00
12438;DHT22;6283;51.330;12.374;2022-12-18T00:28:30;-4.10;1.00
12438;DHT22;6283;51.330;12.374;2022-12-18T00:31:06;-4.40;1.00
12438;DHT22;6283;51.330;12.374;2022-12-18T00:33:33;-4.30;1.00
12438;DHT22;6283;51.330;12.374;2022-12-18T00:36:11;-4.10;1.00
12438;DHT22;6283;51.330;12.374;2022-12-18T00:38:37;-4.10;1.00
12438;DHT22;6283;51.330;12.374;2022-12-18T00:41:04;-4.40;1.00
12438;DHT22;6283;51.330;12.374;2022-12-18T00:43:29;-4.30;1.00
12438;DHT22;6283;51.330;12.374;2022-12-18T00:45:55;-4.10;1.00
12438;DHT22;6283;51.330;12.374;2022-12-18T00:48:21;-4.10;1.00
12438;DHT22;6283;51.330;12.374;2022-12-18T00:50:50;-4.30;1.00
12438;DHT22;6283;51.330;12.374;2022-12-18T00:53:16;-4.10;1.00
12438;DHT22;6283;51.330;12.374;2022-12-18T00:55:42;-4.40;1.00
12438;DHT22;6283;51.330;12.374;2022-12-18T00:58:10;-4.40;1.00
12438;DHT22;6283;51.330;12.374;2022-12-18T01:00:35;-4.40;1.00
12438;DHT22;6283;51.330;12.374;2022-12-18T01:03:01;-4.40;1.00
12438;DHT22;6283;51.330;12.374;2022-12-18T01:05:27;-4.30;1.00
12438;DHT22;6283;51.330;12.374;2022-12-18T01:07:53;-4.50;1.00
12438;DHT22;6283;51.330;12.374;2022-12-18T01:10:20;-4.30;1.00
12438;DHT22;6283;51.330;12.374;2022-12-18T01:12:45;-4.20;1.00
12438;DHT22;6283;51.330;12.374;2022-12-18T01:15:12;-4.50;1.00
12438;DHT22;6283;51.330;12.374;2022-12-18T01:17:38;-4.40;1.00
12438;DHT22;6283;51.330;12.374;2022-12-18T01:20:05;-4.50;1.00
12438;DHT22;6283;51.330;12.374;2022-12-18T01:22:30;-4.40;1.00
12438;DHT22;6283;51.330;12.374;2022-12-18T01:24:56;-4.70;1.00
12438;DHT22;6283;51.330;12.374;2022-12-18T01:27:22;-4.40;1.00
12438;DHT22;6283;51.330;12.374;2022-12-18T01:29:48;-4.30;1.00
12438;DHT22;6283;51.330;12.374;2022-12-18T01:32:14;-4.70;1.00
12438;DHT22;6283;51.330;12.374;2022-12-18T01:34:39;-4.60;1.00
12438;DHT22;6283;51.330;12.374;2022-12-18T01:37:05;-4.70;1.00
12438;DHT22;6283;51.330;12.374;2022-12-18T01:39:31;-4.50;1.00
12438;DHT22;6283;51.330;12.374;2022-12-18T01:42:02;-4.70;1.00
12438;DHT22;6283;51.330;12.374;2022-12-18T01:49:48;-4.80;1.00
12438;DHT22;6283;51.330;12.374;2022-12-18T01:52:15;-4.70;1.00
12438;DHT22;6283;51.330;12.374;2022-12-18T01:54:41;-4.70;1.00
12438;DHT22;6283;51.330;12.374;2022-12-18T01:57:07;-4.50;1.00
12438;DHT22;6283;51.330;12.374;2022-12-18T01:59:33;-4.90;1.00
12438;DHT22;6283;51.330;12.374;2022-12-18T02:01:59;-4.90;1.00
12438;DHT22;6283;51.330;12.374;2022-12-18T02:04:27;-4.90;1.00
12438;DHT22;6283;51.330;12.374;2022-12-18T02:09:48;-4.90;1.00
12438;DHT22;6283;51.330;12.374;2022-12-18T02:12:24;-4.70;1.00
12438;DHT22;6283;51.330;12.374;2022-12-18T02:15:02;-4.90;1.00
12438;DHT22;6283;51.330;12.374;2022-12-18T02:22:45;-4.90;1.00
12438;DHT22;6283;51.330;12.374;2022-12-18T02:28:01;-4.80;1.00
12438;DHT22;6283;51.330;12.374;2022-12-18T02:30:31;-4.90;1.00
12438;DHT22;6283;51.330;12.374;2022-12-18T02:32:59;-4.80;1.00
12438;DHT22;6283;51.330;12.374;2022-12-18T02:35:29;-4.90;1.00
12438;DHT22;6283;51.330;12.374;2022-12-18T02:37:55;-4.90;1.00
12438;DHT22;6283;51.330;12.374;2022-12-18T02:40:24;-4.90;1.00
12438;DHT22;6283;51.330;12.374;2022-12-18T02:42:50;-4.90;1.00
12438;DHT22;6283;51.330;12.374;2022-12-18T02:45:15;-5.10;1.00
12438;DHT22;6283;51.330;12.374;2022-12-18T02:47:45;-5.10;1.00
12438;DHT22;6283;51.330;12.374;2022-12-18T02:52:53;-4.90;1.00
12438;DHT22;6283;51.330;12.374;2022-12-18T03:01:11;-5.10;1.00
12438;DHT22;6283;51.330;12.374;2022-12-18T03:03:47;-5.10;1.00
12438;DHT22;6283;51.330;12.374;2022-12-18T03:06:25;-5.00;1.00
12438;DHT22;6283;51.330;12.374;2022-12-18T03:08:58;-4.90;1.00
12438;DHT22;6283;51.330;12.374;2022-12-18T03:11:26;-5.00;1.00
12438;DHT22;6283;51.330;12.374;2022-12-18T03:14:15;-5.00;1.00
12438;DHT22;6283;51.330;12.374;2022-12-18T03:16:43;-4.90;1.00
12438;DHT22;6283;51.330;12.374;2022-12-18T03:19:18;-4.80;1.00
12438;DHT22;6283;51.330;12.374;2022-12-18T03:21:47;-5.00;1.00
12438;DHT22;6283;51.330;12.374;2022-12-18T03:24:15;-5.10;1.00
12438;DHT22;6283;51.330;12.374;2022-12-18T03:26:46;-5.10;1.00
12438;DHT22;6283;51.330;12.374;2022-12-18T03:29:16;-5.00;1.00
12438;DHT22;6283;51.330;12.374;2022-12-18T03:31:51;-5.10;1.00
12438;DHT22;6283;51.330;12.374;2022-12-18T03:34:31;-5.00;1.00
12438;DHT22;6283;51.330;12.374;2022-12-18T03:36:58;-4.80;1.00
12438;DHT22;6283;51.330;12.374;2022-12-18T03:39:24;-4.90;1.00
12438;DHT22;6283;51.330;12.374;2022-12-18T03:44:30;-5.10;1.00
12438;DHT22;6283;51.330;12.374;2022-12-18T03:54:48;-4.90;1.00
12438;DHT22;6283;51.330;12.374;2022-12-18T03:57:20;-4.90;1.00
12438;DHT22;6283;51.330;12.374;2022-12-18T03:59:50;-4.90;1.00
12438;DHT22;6283;51.330;12.374;2022-12-18T04:02:18;-4.90;1.00
12438;DHT22;6283;51.330;12.374;2022-12-18T04:04:44;-4.90;1.00
12438;DHT22;6283;51.330;12.374;2022-12-18T04:07:13;-4.90;1.00
12438;DHT22;6283;51.330;12.374;2022-12-18T04:09:41;-5.10;1.00
12438;DHT22;6283;51.330;12.374;2022-12-18T04:12:08;-5.00;1.00
12438;DHT22;6283;51.330;12.374;2022-12-18T04:14:34;-5.10;1.00
12438;DHT22;6283;51.330;12.374;2022-12-18T04:17:01;-5.30;1.00
12438;DHT22;6283;51.330;12.374;2022-12-18T04:19:27;-5.00;1.00
12438;DHT22;6283;51.330;12.374;2022-12-18T04:21:53;-5.00;1.00
12438;DHT22;6283;51.330;12.374;2022-12-18T04:24:19;-5.10;1.00
12438;DHT22;6283;51.330;12.374;2022-12-18T04:26:44;-5.20;1.00
12438;DHT22;6283;51.330;12.374;2022-12-18T04:29:10;-5.30;1.00
12438;DHT22;6283;51.330;12.374;2022-12-18T04:31:35;-5.10;1.00
12438;DHT22;6283;51.330;12.374;2022-12-18T04:34:01;-5.20;1.00
12438;DHT22;6283;51.330;12.374;2022-12-18T04:36:27;-5.20;1.00
12438;DHT22;6283;51.330;12.374;2022-12-18T04:38:52;-5.10;1.00
12438;DHT22;6283;51.330;12.374;2022-12-18T04:41:18;-5.30;1.00
12438;DHT22;6283;51.330;12.374;2022-12-18T04:43:44;-5.20;1.00
12438;DHT22;6283;51.330;12.374;2022-12-18T04:46:09;-5.20;1.00
12438;DHT22;6283;51.330;12.374;2022-12-18T04:48:36;-5.10;1.00
12438;DHT22;6283;51.330;12.374;2022-12-18T04:51:02;-5.10;1.00
12438;DHT22;6283;51.330;12.374;2022-12-18T04:53:28;-5.20;1.00
12438;DHT22;6283;51.330;12.374;2022-12-18T04:58:29;-5.30;1.00
12438;DHT22;6283;51.330;12.374;2022-12-18T05:00:55;-5.20;1.00
12438;DHT22;6283;51.330;12.374;2022-12-18T05:03:20;-5.10;1.00
12438;DHT22;6283;51.330;12.374;2022-12-18T05:05:49;-5.10;1.00
12438;DHT22;6283;51.330;12.374;2022-12-18T05:08:16;-5.10;1.00
12438;DHT22;6283;51.330;12.374;2022-12-18T05:10:41;-5.10;1.00
12438;DHT22;6283;51.330;12.374;2022-12-18T05:13:07;-5.30;1.00
12438;DHT22;6283;51.330;12.374;2022-12-18T05:15:33;-5.10;1.00
12438;DHT22;6283;51.330;12.374;2022-12-18T05:17:59;-5.20;1.00
12438;DHT22;6283;51.330;12.374;2022-12-18T05:20:26;-5.00;1.00
12438;DHT22;6283;51.330;12.374;2022-12-18T05:22:52;-5.20;1.00
12438;DHT22;6283;51.330;12.374;2022-12-18T05:25:18;-5.20;1.00
12438;DHT22;6283;51.330;12.374;2022-12-18T05:27:44;-5.30;1.00
12438;DHT22;6283;51.330;12.374;2022-12-18T05:30:10;-5.20;1.00
12438;DHT22;6283;51.330;12.374;2022-12-18T05:32:37;-5.20;1.00
12438;DHT22;6283;51.330;12.374;2022-12-18T05:35:04;-5.10;1.00
12438;DHT22;6283;51.330;12.374;2022-12-18T05:37:30;-5.30;1.00
12438;DHT22;6283;51.330;12.374;2022-12-18T05:39:56;-5.00;1.00
12438;DHT22;6283;51.330;12.374;2022-12-18T05:42:21;-5.20;1.00
12438;DHT22;6283;51.330;12.374;2022-12-18T05:44:47;-5.20;1.00
12438;DHT22;6283;51.330;12.374;2022-12-18T05:47:13;-5.20;1.00
12438;DHT22;6283;51.330;12.374;2022-12-18T05:49:39;-5.20;1.00
12438;DHT22;6283;51.330;12.374;2022-12-18T05:52:04;-5.10;1.00
12438;DHT22;6283;51.330;12.374;2022-12-18T05:54:30;-5.30;1.00
12438;DHT22;6283;51.330;12.374;2022-12-18T05:56:57;-5.20;1.00
12438;DHT22;6283;51.330;12.374;2022-12-18T05:59:22;-5.20;1.00
12438;DHT22;6283;51.330;12.374;2022-12-18T06:01:48;-5.00;1.00
12438;DHT22;6283;51.330;12.374;2022-12-18T06:04:14;-5.20;1.00
12438;DHT22;6283;51.330;12.374;2022-12-18T06:06:40;-5.30;1.00
12438;DHT22;6283;51.330;12.374;2022-12-18T06:09:06;-5.20;1.00
12438;DHT22;6283;51.330;12.374;2022-12-18T06:11:38;-5.10;1.00
12438;DHT22;6283;51.330;12.374;2022-12-18T06:14:05;-5.10;1.00
12438;DHT22;6283;51.330;12.374;2022-12-18T06:16:31;-5.30;1.00
12438;DHT22;6283;51.330;12.374;2022-12-18T06:19:02;-5.00;1.00
12438;DHT22;6283;51.330;12.374;2022-12-18T06:21:29;-5.20;1.00
12438;DHT22;6283;51.330;12.374;2022-12-18T06:23:55;-5.20;1.00
12438;DHT22;6283;51.330;12.374;2022-12-18T06:26:21;-5.10;1.00
12438;DHT22;6283;51.330;12.374;2022-12-18T06:28:46;-5.10;1.00
12438;DHT22;6283;51.330;12.374;2022-12-18T06:31:12;-5.30;1.00
12438;DHT22;6283;51.330;12.374;2022-12-18T06:33:38;-5.40;1.00
12438;DHT22;6283;51.330;12.374;2022-12-18T06:36:06;-5.20;1.00
12438;DHT22;6283;51.330;12.374;2022-12-18T06:38:34;-5.30;1.00
12438;DHT22;6283;51.330;12.374;2022-12-18T06:41:00;-5.10;1.00
12438;DHT22;6283;51.330;12.374;2022-12-18T06:43:25;-5.20;1.00
12438;DHT22;6283;51.330;12.374;2022-12-18T06:45:51;-5.20;1.00
12438;DHT22;6283;51.330;12.374;2022-12-18T06:48:18;-5.20;1.00
12438;DHT22;6283;51.330;12.374;2022-12-18T06:50:45;-5.30;1.00
12438;DHT22;6283;51.330;12.374;2022-12-18T06:53:10;-5.20;1.00
12438;DHT22;6283;51.330;12.374;2022-12-18T06:55:36;-5.50;1.00
12438;DHT22;6283;51.330;12.374;2022-12-18T06:58:02;-5.20;1.00
12438;DHT22;6283;51.330;12.374;2022-12-18T07:00:27;-5.10;1.00
12438;DHT22;6283;51.330;12.374;2022-12-18T07:02:53;-5.30;1.00
12438;DHT22;6283;51.330;12.374;2022-12-18T07:05:18;-5.10;1.00
12438;DHT22;6283;51.330;12.374;2022-12-18T07:07:44;-5.30;1.00
12438;DHT22;6283;51.330;12.374;2022-12-18T07:10:10;-5.30;1.00
12438;DHT22;6283;51.330;12.374;2022-12-18T07:12:35;-5.20;1.00
12438;DHT22;6283;51.330;12.374;2022-12-18T07:15:01;-5.20;1.00
12438;DHT22;6283;51.330;12.374;2022-12-18T07:17:27;-5.30;1.00
12438;DHT22;6283;51.330;12.374;2022-12-18T07:19:52;-5.50;1.00
12438;DHT22;6283;51.330;12.374;2022-12-18T07:22:18;-5.30;1.00
12438;DHT22;6283;51.330;12.374;2022-12-18T07:24:43;-5.20;1.00
12438;DHT22;6283;51.330;12.374;2022-12-18T07:27:09;-5.20;1.00
12438;DHT22;6283;51.330;12.374;2022-12-18T07:29:35;-5.30;1.00
12438;DHT22;6283;51.330;12.374;2022-12-18T07:32:00;-5.10;1.00
12438;DHT22;6283;51.330;12.374;2022-12-18T07:34:26;-5.30;1.00
12438;DHT22;6283;51.330;12.374;2022-12-18T07:36:51;-5.40;1.00
12438;DHT22;6283;51.330;12.374;2022-12-18T07:39:17;-5.50;1.00
12438;DHT22;6283;51.330;12.374;2022-12-18T07:41:42;-5.40;1.00
12438;DHT22;6283;51.330;12.374;2022-12-18T07:44:12;-5.40;1.00
12438;DHT22;6283;51.330;12.374;2022-12-18T07:46:37;-5.30;1.00
12438;DHT22;6283;51.330;12.374;2022-12-18T07:49:03;-5.10;1.00
12438;DHT22;6283;51.330;12.374;2022-12-18T07:51:29;-5.20;1.00
12438;DHT22;6283;51.330;12.374;2022-12-18T07:53:56;-5.10;1.00
12438;DHT22;6283;51.330;12.374;2022-12-18T07:56:21;-5.10;1.00
12438;DHT22;6283;51.330;12.374;2022-12-18T07:58:47;-5.10;1.00
12438;DHT22;6283;51.330;12.374;2022-12-18T08:01:13;-5.00;1.00
12438;DHT22;6283;51.330;12.374;2022-12-18T08:03:40;-5.10;1.00
12438;DHT22;6283;51.330;12.374;2022-12-18T08:06:07;-5.10;1.00
12438;DHT22;6283;51.330;12.374;2022-12-18T08:08:34;-5.10;1.00
12438;DHT22;6283;51.330;12.374;2022-12-18T08:11:01;-5.10;1.00
12438;DHT22;6283;51.330;12.374;2022-12-18T08:13:27;-5.00;1.00
12438;DHT22;6283;51.330;12.374;2022-12-18T08:16:19;-5.10;1.00
12438;DHT22;6283;51.330;12.374;2022-12-18T08:18:45;-5.00;1.00
12438;DHT22;6283;51.330;12.374;2022-12-18T08:21:15;-5.10;1.00
12438;DHT22;6283;51.330;12.374;2022-12-18T08:23:42;-5.00;1.00
12438;DHT22;6283;51.330;12.374;2022-12-18T08:26:08;-4.80;1.00
12438;DHT22;6283;51.330;12.374;2022-12-18T08:28:34;-4.90;1.00
12438;DHT22;6283;51.330;12.374;2022-12-18T08:31:00;-4.70;1.00
12438;DHT22;6283;51.330;12.374;2022-12-18T08:33:26;-4.90;1.00
12438;DHT22;6283;51.330;12.374;2022-12-18T08:35:52;-4.80;1.00
12438;DHT22;6283;51.330;12.374;2022-12-18T08:38:18;-4.90;1.00
12438;DHT22;6283;51.330;12.374;2022-12-18T08:40:44;-4.60;1.00
12438;DHT22;6283;51.330;12.374;2022-12-18T08:43:10;-4.80;1.00
12438;DHT22;6283;51.330;12.374;2022-12-18T08:45:55;-4.50;1.00
12438;DHT22;6283;51.330;12.374;2022-12-18T08:48:21;-4.50;1.00
12438;DHT22;6283;51.330;12.374;2022-12-18T08:50:57;-4.50;1.00
12438;DHT22;6283;51.330;12.374;2022-12-18T08:53:24;-4.40;1.00
12438;DHT22;6283;51.330;12.374;2022-12-18T08:55:49;-4.50;1.00
12438;DHT22;6283;51.330;12.374;2022-12-18T08:58:15;-4.30;1.00
12438;DHT22;6283;51.330;12.374;2022-12-18T09:00:41;-4.40;1.00
12438;DHT22;6283;51.330;12.374;2022-12-18T09:03:12;-4.40;1.00
12438;DHT22;6283;51.330;12.374;2022-12-18T09:05:38;-4.40;1.00
12438;DHT22;6283;51.330;12.374;2022-12-18T09:08:03;-4.30;1.00
12438;DHT22;6283;51.330;12.374;2022-12-18T09:10:29;-4.40;1.00
12438;DHT22;6283;51.330;12.374;2022-12-18T09:12:54;-4.20;1.00
12438;DHT22;6283;51.330;12.374;2022-12-18T09:15:21;-4.20;1.00
12438;DHT22;6283;51.330;12.374;2022-12-18T09:17:47;-4.20;1.00
12438;DHT22;6283;51.330;12.374;2022-12-18T09:20:13;-4.20;1.00
12438;DHT22;6283;51.330;12.374;2022-12-18T09:22:39;-4.00;1.00
12438;DHT22;6283;51.330;12.374;2022-12-18T09:25:05;-3.70;1.00
12438;DHT22;6283;51.330;12.374;2022-12-18T09:27:33;-3.80;1.00
12438;DHT22;6283;51.330;12.374;2022-12-18T09:29:59;-3.90;1.00
12438;DHT22;6283;51.330;12.374;2022-12-18T09:32:24;-3.60;1.00
12438;DHT22;6283;51.330;12.374;2022-12-18T09:34:50;-3.70;1.00
12438;DHT22;6283;51.330;12.374;2022-12-18T09:37:16;-3.50;1.00
12438;DHT22;6283;51.330;12.374;2022-12-18T09:39:41;-3.40;1.00
12438;DHT22;6283;51.330;12.374;2022-12-18T09:42:12;-3.50;1.00
12438;DHT22;6283;51.330;12.374;2022-12-18T09:44:45;-3.40;1.00
12438;DHT22;6283;51.330;12.374;2022-12-18T09:49:47;-3.30;1.00
12438;DHT22;6283;51.330;12.374;2022-12-18T09:52:27;-3.20;1.00
12438;DHT22;6283;51.330;12.374;2022-12-18T09:55:03;-3.10;1.00
12438;DHT22;6283;51.330;12.374;2022-12-18T09:57:33;-3.00;1.00
12438;DHT22;6283;51.330;12.374;2022-12-18T10:00:16;-3.10;1.00
12438;DHT22;6283;51.330;12.374;2022-12-18T10:02:43;-3.00;1.00
12438;DHT22;6283;51.330;12.374;2022-12-18T10:08:05;-3.10;1.00
12438;DHT22;6283;51.330;12.374;2022-12-18T10:10:45;-2.90;1.00
12438;DHT22;6283;51.330;12.374;2022-12-18T10:13:41;-2.70;1.00
12438;DHT22;6283;51.330;12.374;2022-12-18T10:27:16;-2.20;1.00
12438;DHT22;6283;51.330;12.374;2022-12-18T10:29:45;-2.50;1.00
12438;DHT22;6283;51.330;12.374;2022-12-18T10:32:20;-2.30;1.00
12438;DHT22;6283;51.330;12.374;2022-12-18T10:34:50;-2.30;1.00
12438;DHT22;6283;51.330;12.374;2022-12-18T10:37:19;-2.10;1.00
12438;DHT22;6283;51.330;12.374;2022-12-18T10:40:13;-2.20;1.00
12438;DHT22;6283;51.330;12.374;2022-12-18T10:42:39;-2.10;1.00
12438;DHT22;6283;51.330;12.374;2022-12-18T10:47:35;-2.10;1.00
12438;DHT22;6283;51.330;12.374;2022-12-18T10:50:03;-2.00;1.00
12438;DHT22;6283;51.330;12.374;2022-12-18T10:52:29;-1.90;1.00
12438;DHT22;6283;51.330;12.374;2022-12-18T10:54:58;-1.90;1.00
12438;DHT22;6283;51.330;12.374;2022-12-18T10:57:31;-2.00;1.00
12438;DHT22;6283;51.330;12.374;2022-12-18T10:59:59;-1.80;1.00
12438;DHT22;6283;51.330;12.374;2022-12-18T11:02:36;-1.90;1.00
12438;DHT22;6283;51.330;12.374;2022-12-18T11:05:07;-1.80;1.00
12438;DHT22;6283;51.330;12.374;2022-12-18T11:07:49;-2.10;1.00
12438;DHT22;6283;51.330;12.374;2022-12-18T11:10:17;-1.70;1.00
12438;DHT22;6283;51.330;12.374;2022-12-18T11:12:44;-1.70;1.00
12438;DHT22;6283;51.330;12.374;2022-12-18T11:15:29;-1.70;1.00
12438;DHT22;6283;51.330;12.374;2022-12-18T11:17:55;-1.80;1.00
12438;DHT22;6283;51.330;12.374;2022-12-18T11:20:31;-1.60;1.00
12438;DHT22;6283;51.330;12.374;2022-12-18T11:23:20;-1.20;1.00
12438;DHT22;6283;51.330;12.374;2022-12-18T11:25:57;-1.20;1.00
12438;DHT22;6283;51.330;12.374;2022-12-18T11:28:38;-1.30;1.00
12438;DHT22;6283;51.330;12.374;2022-12-18T11:31:19;-1.00;1.00
12438;DHT22;6283;51.330;12.374;2022-12-18T11:36:34;-0.80;1.00
12438;DHT22;6283;51.330;12.374;2022-12-18T11:39:09;-0.80;1.00
12438;DHT22;6283;51.330;12.374;2022-12-18T11:41:56;-0.80;1.00
12438;DHT22;6283;51.330;12.374;2022-12-18T11:44:53;-0.70;1.00
12438;DHT22;6283;51.330;12.374;2022-12-18T11:47:31;-0.40;1.00
12438;DHT22;6283;51.330;12.374;2022-12-18T11:50:03;-0.40;1.00
12438;DHT22;6283;51.330;12.374;2022-12-18T11:52:37;0.00;1.00
12438;DHT22;6283;51.330;12.374;2022-12-18T12:00:29;0.30;1.00
12438;DHT22;6283;51.330;12.374;2022-12-18T12:08:54;0.70;1.00
12438;DHT22;6283;51.330;12.374;2022-12-18T12:25:41;1.10;1.00
12438;DHT22;6283;51.330;12.374;2022-12-18T12:31:19;1.40;1.00
12438;DHT22;6283;51.330;12.374;2022-12-18T12:34:22;1.70;1.00
12438;DHT22;6283;51.330;12.374;2022-12-18T12:37:20;1.90;1.00
12438;DHT22;6283;51.330;12.374;2022-12-18T12:39:52;1.80;1.00
12438;DHT22;6283;51.330;12.374;2022-12-18T12:42:39;1.90;1.00
12438;DHT22;6283;51.330;12.374;2022-12-18T12:45:34;1.80;1.00
12438;DHT22;6283;51.330;12.374;2022-12-18T12:48:02;1.50;1.00
12438;DHT22;6283;51.330;12.374;2022-12-18T12:50:33;1.10;1.00
12438;DHT22;6283;51.330;12.374;2022-12-18T12:53:01;1.20;1.00
12438;DHT22;6283;51.330;12.374;2022-12-18T12:55:31;0.90;1.00
12438;DHT22;6283;51.330;12.374;2022-12-18T13:00:23;1.00;1.00
12438;DHT22;6283;51.330;12.374;2022-12-18T13:05:43;1.30;1.00
12438;DHT22;6283;51.330;12.374;2022-12-18T13:08:28;1.70;1.00
12438;DHT22;6283;51.330;12.374;2022-12-18T13:10:55;1.50;1.00
12438;DHT22;6283;51.330;12.374;2022-12-18T13:13:56;1.90;1.00
12438;DHT22;6283;51.330;12.374;2022-12-18T13:16:25;2.20;1.00
12438;DHT22;6283;51.330;12.374;2022-12-18T13:18:54;2.40;1.00
12438;DHT22;6283;51.330;12.374;2022-12-18T13:21:33;2.60;1.00
12438;DHT22;6283;51.330;12.374;2022-12-18T13:24:27;2.40;1.00
12438;DHT22;6283;51.330;12.374;2022-12-18T13:26:54;2.30;1.00
12438;DHT22;6283;51.330;12.374;2022-12-18T13:29:43;2.20;1.00
12438;DHT22;6283;51.330;12.374;2022-12-18T13:32:23;2.30;1.00
12438;DHT22;6283;51.330;12.374;2022-12-18T13:37:53;1.80;1.00
12438;DHT22;6283;51.330;12.374;2022-12-18T13:48:23;1.30;1.00
12438;DHT22;6283;51.330;12.374;2022-12-18T13:51:09;0.90;1.00
12438;DHT22;6283;51.330;12.374;2022-12-18T13:53:44;0.70;1.00
12438;DHT22;6283;51.330;12.374;2022-12-18T13:56:22;0.60;1.00
12438;DHT22;6283;51.330;12.374;2022-12-18T13:59:17;0.50;1.00
12438;DHT22;6283;51.330;12.374;2022-12-18T14:01:49;0.10;1.00
12438;DHT22;6283;51.330;12.374;2022-12-18T14:06:51;0.00;1.00
12438;DHT22;6283;51.330;12.374;2022-12-18T14:09:24;-0.40;1.00
12438;DHT22;6283;51.330;12.374;2022-12-18T14:11:51;-0.20;1.00
12438;DHT22;6283;51.330;12.374;2022-12-18T14:14:18;-0.20;1.00
12438;DHT22;6283;51.330;12.374;2022-12-18T14:16:46;-0.70;1.00
12438;DHT22;6283;51.330;12.374;2022-12-18T14:19:15;-0.70;1.00
12438;DHT22;6283;51.330;12.374;2022-12-18T14:21:47;-0.60;1.00
12438;DHT22;6283;51.330;12.374;2022-12-18T14:24:20;-0.90;1.00
12438;DHT22;6283;51.330;12.374;2022-12-18T14:26:47;-0.60;1.00
12438;DHT22;6283;51.330;12.374;2022-12-18T14:29:28;-0.60;1.00
12438;DHT22;6283;51.330;12.374;2022-12-18T14:32:07;-0.90;1.00
12438;DHT22;6283;51.330;12.374;2022-12-18T14:34:33;-0.80;1.00
12438;DHT22;6283;51.330;12.374;2022-12-18T14:36:58;-1.00;1.00
12438;DHT22;6283;51.330;12.374;2022-12-18T14:39:24;-0.70;1.00
12438;DHT22;6283;51.330;12.374;2022-12-18T14:41:51;-1.10;1.00
12438;DHT22;6283;51.330;12.374;2022-12-18T14:44:17;-1.10;1.00
12438;DHT22;6283;51.330;12.374;2022-12-18T14:46:47;-0.90;1.00
12438;DHT22;6283;51.330;12.374;2022-12-18T14:52:05;-1.20;1.00
12438;DHT22;6283;51.330;12.374;2022-12-18T14:54:32;-1.40;1.00
12438;DHT22;6283;51.330;12.374;2022-12-18T14:59:30;-1.50;1.00
12438;DHT22;6283;51.330;12.374;2022-12-18T15:02:23;-1.60;1.00
12438;DHT22;6283;51.330;12.374;2022-12-18T15:05:02;-1.50;1.00
12438;DHT22;6283;51.330;12.374;2022-12-18T15:07:40;-1.50;1.00
12438;DHT22;6283;51.330;12.374;2022-12-18T15:10:19;-1.50;1.00
12438;DHT22;6283;51.330;12.374;2022-12-18T15:20:24;-1.70;1.00
12438;DHT22;6283;51.330;12.374;2022-12-18T15:22:50;-1.90;1.00
12438;DHT22;6283;51.330;12.374;2022-12-18T15:25:36;-1.90;1.00
12438;DHT22;6283;51.330;12.374;2022-12-18T15:28:03;-1.90;1.00
12438;DHT22;6283;51.330;12.374;2022-12-18T15:30:29;-1.80;1.00
12438;DHT22;6283;51.330;12.374;2022-12-18T15:33:30;-2.00;1.00
12438;DHT22;6283;51.330;12.374;2022-12-18T15:35:58;-1.80;1.00
12438;DHT22;6283;51.330;12.374;2022-12-18T15:38:24;-1.90;1.00
12438;DHT22;6283;51.330;12.374;2022-12-18T15:40:49;-1.80;1.00
12438;DHT22;6283;51.330;12.374;2022-12-18T15:43:15;-1.90;1.00
12438;DHT22;6283;51.330;12.374;2022-12-18T15:46:00;-1.90;1.00
12438;DHT22;6283;51.330;12.374;2022-12-18T15:48:25;-1.80;1.00
12438;DHT22;6283;51.330;12.374;2022-12-18T15:50:52;-1.80;1.00
12438;DHT22;6283;51.330;12.374;2022-12-18T15:53:19;-2.00;1.00
12438;DHT22;6283;51.330;12.374;2022-12-18T15:55:45;-1.90;1.00
12438;DHT22;6283;51.330;12.374;2022-12-18T15:58:28;-1.90;1.00
12438;DHT22;6283;51.330;12.374;2022-12-18T16:00:56;-1.80;1.00
12438;DHT22;6283;51.330;12.374;2022-12-18T16:03:23;-1.70;1.00
12438;DHT22;6283;51.330;12.374;2022-12-18T16:05:49;-1.70;1.00
12438;DHT22;6283;51.330;12.374;2022-12-18T16:08:15;-1.70;1.00
12438;DHT22;6283;51.330;12.374;2022-12-18T16:10:40;-1.70;1.00
12438;DHT22;6283;51.330;12.374;2022-12-18T16:13:10;-1.70;1.00
12438;DHT22;6283;51.330;12.374;2022-12-18T16:15:36;-1.90;1.00
12438;DHT22;6283;51.330;12.374;2022-12-18T16:18:01;-2.00;1.00
12438;DHT22;6283;51.330;12.374;2022-12-18T16:20:27;-1.90;1.00
12438;DHT22;6283;51.330;12.374;2022-12-18T16:22:52;-2.00;1.00
12438;DHT22;6283;51.330;12.374;2022-12-18T16:25:23;-1.80;1.00
12438;DHT22;6283;51.330;12.374;2022-12-18T16:27:50;-2.20;1.00
12438;DHT22;6283;51.330;12.374;2022-12-18T16:30:19;-2.10;1.00
12438;DHT22;6283;51.330;12.374;2022-12-18T16:32:45;-2.10;1.00
12438;DHT22;6283;51.330;12.374;2022-12-18T16:35:12;-2.20;1.00
12438;DHT22;6283;51.330;12.374;2022-12-18T16:37:39;-1.90;1.00
12438;DHT22;6283;51.330;12.374;2022-12-18T16:40:07;-1.90;1.00
12438;DHT22;6283;51.330;12.374;2022-12-18T16:42:35;-2.10;1.00
12438;DHT22;6283;51.330;12.374;2022-12-18T16:45:02;-2.10;1.00
12438;DHT22;6283;51.330;12.374;2022-12-18T16:47:28;-1.90;1.00
12438;DHT22;6283;51.330;12.374;2022-12-18T16:49:53;-2.00;1.00
12438;DHT22;6283;51.330;12.374;2022-12-18T16:52:19;-1.90;1.00
12438;DHT22;6283;51.330;12.374;2022-12-18T16:54:45;-2.10;1.00
12438;DHT22;6283;51.330;12.374;2022-12-18T16:57:16;-2.00;1.00
12438;DHT22;6283;51.330;12.374;2022-12-18T16:59:42;-2.30;1.00
12438;DHT22;6283;51.330;12.374;2022-12-18T17:04:43;-2.30;1.00
12438;DHT22;6283;51.330;12.374;2022-12-18T17:07:09;-2.10;1.00
12438;DHT22;6283;51.330;12.374;2022-12-18T17:09:35;-2.20;1.00
12438;DHT22;6283;51.330;12.374;2022-12-18T17:12:00;-2.10;1.00
12438;DHT22;6283;51.330;12.374;2022-12-18T17:14:26;-2.00;1.00
12438;DHT22;6283;51.330;12.374;2022-12-18T17:16:53;-1.90;1.00
12438;DHT22;6283;51.330;12.374;2022-12-18T17:19:19;-2.30;1.00
12438;DHT22;6283;51.330;12.374;2022-12-18T17:21:47;-2.30;1.00
12438;DHT22;6283;51.330;12.374;2022-12-18T17:24:13;-2.30;1.00
12438;DHT22;6283;51.330;12.374;2022-12-18T17:26:38;-2.10;1.00
12438;DHT22;6283;51.330;12.374;2022-12-18T17:29:04;-2.10;1.00
12438;DHT22;6283;51.330;12.374;2022-12-18T17:31:30;-2.20;1.00
12438;DHT22;6283;51.330;12.374;2022-12-18T17:33:56;-2.20;1.00
12438;DHT22;6283;51.330;12.374;2022-12-18T17:36:23;-1.90;1.00
12438;DHT22;6283;51.330;12.374;2022-12-18T17:38:54;-2.00;1.00
12438;DHT22;6283;51.330;12.374;2022-12-18T17:41:20;-2.10;1.00
12438;DHT22;6283;51.330;12.374;2022-12-18T17:43:53;-2.00;1.00
12438;DHT22;6283;51.330;12.374;2022-12-18T17:46:20;-2.10;1.00
12438;DHT22;6283;51.330;12.374;2022-12-18T17:48:45;-1.80;1.00
12438;DHT22;6283;51.330;12.374;2022-12-18T17:51:12;-2.10;1.00
12438;DHT22;6283;51.330;12.374;2022-12-18T17:53:38;-2.20;1.00
12438;DHT22;6283;51.330;12.374;2022-12-18T17:56:04;-2.10;1.00
12438;DHT22;6283;51.330;12.374;2022-12-18T17:58:32;-2.10;1.00
12438;DHT22;6283;51.330;12.374;2022-12-18T18:00:58;-1.80;1.00
12438;DHT22;6283;51.330;12.374;2022-12-18T18:03:24;-1.80;1.00